createdAt,value
2019-01-10T00:00:34.987Z,92.00
2019-01-10T00:03:04.349Z,91.40
2019-01-10T00:05:33.471Z,90.60
2019-01-10T00:08:02.443Z,91.80
2019-01-10T00:10:31.411Z,92.10
2019-01-10T00:13:00.450Z,91.10
2019-01-10T00:15:29.417Z,92.00
2019-01-10T00:17:58.388Z,92.30
2019-01-10T00:20:27.345Z,92.70
2019-01-10T00:22:56.489Z,90.90
2019-01-10T00:25:25.578Z,91.80
2019-01-10T00:27:54.569Z,91.90
2019-01-10T00:30:23.521Z,91.40
2019-01-10T00:32:52.495Z,92.10
2019-01-10T00:35:21.481Z,90.60
2019-01-10T00:37:50.432Z,91.30
2019-01-10T00:40:19.484Z,91.80
2019-01-10T00:42:50.050Z,91.00
2019-01-10T00:45:19.321Z,91.40
2019-01-10T00:47:48.478Z,92.00
2019-01-10T00:50:23.005Z,91.70
2019-01-10T00:52:52.339Z,91.30
2019-01-10T00:55:21.441Z,91.50
2019-01-10T00:57:50.550Z,91.70
2019-01-10T01:00:21.959Z,91.70
2019-01-10T01:02:51.060Z,91.50
2019-01-10T01:05:20.923Z,91.70
2019-01-10T01:07:50.330Z,91.90
2019-01-10T01:10:21.839Z,91.50
2019-01-10T01:12:58.304Z,91.40
2019-01-10T01:15:21.958Z,92.30
2019-01-10T01:17:50.999Z,92.10
2019-01-10T01:20:22.107Z,92.30
2019-01-10T01:22:51.427Z,90.80
2019-01-10T01:25:20.546Z,91.40
2019-01-10T01:27:49.678Z,91.50
2019-01-10T01:30:20.959Z,91.60
2019-01-10T01:32:50.055Z,91.50
2019-01-10T01:35:21.525Z,90.80
2019-01-10T01:37:50.112Z,91.60
2019-01-10T01:40:20.398Z,90.90
2019-01-10T01:42:49.646Z,90.80
2019-01-10T01:45:19.813Z,91.40
2019-01-10T01:47:48.879Z,90.90
2019-01-10T01:50:20.296Z,90.80
2019-01-10T01:52:49.626Z,90.90
2019-01-10T01:55:18.676Z,91.90
2019-01-10T01:57:47.767Z,92.70
2019-01-10T02:00:19.289Z,91.30
2019-01-10T02:02:48.251Z,91.60
2019-01-10T02:05:17.673Z,91.20
2019-01-10T02:07:46.974Z,91.00
2019-01-10T02:10:18.757Z,91.20
2019-01-10T02:12:47.709Z,91.80
2019-01-10T02:15:17.130Z,91.30
2019-01-10T02:17:49.290Z,91.40
2019-01-10T02:20:16.971Z,92.40
2019-01-10T02:22:46.277Z,91.30
2019-01-10T02:25:16.388Z,91.50
2019-01-10T02:27:45.492Z,91.20
2019-01-10T02:30:20.773Z,92.00
2019-01-10T02:32:49.904Z,91.80
2019-01-10T02:35:19.021Z,91.80
2019-01-10T02:37:48.119Z,91.30
2019-01-10T02:40:17.183Z,92.30
2019-01-10T02:42:46.151Z,92.40
2019-01-10T02:45:16.754Z,92.40
2019-01-10T02:47:45.794Z,92.60
2019-01-10T02:50:20.051Z,91.60
2019-01-10T02:52:49.166Z,91.90
2019-01-10T02:55:18.270Z,91.90
2019-01-10T02:57:47.248Z,92.10
2019-01-10T03:00:19.289Z,92.60
2019-01-10T03:02:48.390Z,93.00
2019-01-10T03:05:17.703Z,92.50
2019-01-10T03:07:46.803Z,92.80
2019-01-10T03:10:22.014Z,92.60
2019-01-10T03:12:51.063Z,92.90
2019-01-10T03:15:20.190Z,92.30
2019-01-10T03:17:49.139Z,93.00
2019-01-10T03:20:20.346Z,93.30
2019-01-10T03:22:49.379Z,92.50
2019-01-10T03:25:18.419Z,93.00
2019-01-10T03:27:47.452Z,91.70
2019-01-10T03:30:19.966Z,91.90
2019-01-10T03:32:49.100Z,92.00
2019-01-10T03:35:18.208Z,92.30
2019-01-10T03:37:47.232Z,92.30
2019-01-10T03:40:18.543Z,92.50
2019-01-10T03:42:47.649Z,92.40
2019-01-10T03:45:18.750Z,92.10
2019-01-10T03:47:47.822Z,93.10
2019-01-10T03:50:18.982Z,92.70
2019-01-10T03:52:48.077Z,93.00
2019-01-10T03:55:17.183Z,93.60
2019-01-10T03:57:46.143Z,92.70
2019-01-10T04:00:20.679Z,93.20
2019-01-10T04:02:49.900Z,93.00
2019-01-10T04:05:19.104Z,93.40
2019-01-10T04:07:48.192Z,92.90
2019-01-10T04:10:17.827Z,93.40
2019-01-10T04:12:46.780Z,92.80
2019-01-10T04:15:16.986Z,93.70
2019-01-10T04:17:46.055Z,93.70
2019-01-10T04:20:16.979Z,94.10
2019-01-10T04:22:46.015Z,94.50
2019-01-10T04:25:15.114Z,94.30
2019-01-10T04:27:44.208Z,94.40
2019-01-10T04:30:18.040Z,94.40
2019-01-10T04:32:47.015Z,94.50
2019-01-10T04:35:16.140Z,94.60
2019-01-10T04:37:45.277Z,94.20
2019-01-10T04:40:16.890Z,94.40
2019-01-10T04:42:45.915Z,94.80
2019-01-10T04:45:15.022Z,94.60
2019-01-10T04:47:44.061Z,94.70
2019-01-10T04:50:14.682Z,94.70
2019-01-10T04:52:43.792Z,94.50
2019-01-10T04:55:13.698Z,94.80
2019-01-10T04:57:42.728Z,94.90
2019-01-10T05:00:15.102Z,94.70
2019-01-10T05:02:44.065Z,94.80
2019-01-10T05:05:13.179Z,94.50
2019-01-10T05:07:42.271Z,94.30
2019-01-10T05:10:11.597Z,95.10
2019-01-10T05:12:41.874Z,94.70
2019-01-10T05:15:13.617Z,94.90
2019-01-10T05:17:42.680Z,94.70
2019-01-10T05:20:19.001Z,94.90
2019-01-10T05:22:48.343Z,94.60
2019-01-10T05:25:17.486Z,94.80
2019-01-10T05:27:46.460Z,94.90
2019-01-10T05:30:20.669Z,94.60
2019-01-10T05:32:49.793Z,95.30
2019-01-10T05:35:18.844Z,95.20
2019-01-10T05:37:47.868Z,95.20
2019-01-10T05:40:16.829Z,95.20
2019-01-10T05:42:45.801Z,95.10
2019-01-10T05:45:16.696Z,95.40
2019-01-10T05:47:45.755Z,95.50
2019-01-10T05:50:17.842Z,95.30
2019-01-10T05:52:47.190Z,95.90
2019-01-10T05:55:17.990Z,95.70
2019-01-10T05:57:46.967Z,95.60
2019-01-10T06:00:21.891Z,95.60
2019-01-10T06:02:50.864Z,95.80
2019-01-10T06:05:19.904Z,95.80
2019-01-10T06:07:48.876Z,96.00
2019-01-10T06:10:23.195Z,95.60
2019-01-10T06:12:52.241Z,95.50
2019-01-10T06:15:21.642Z,95.30
2019-01-10T06:17:50.619Z,95.90
2019-01-10T06:20:21.825Z,95.10
2019-01-10T06:22:50.878Z,94.90
2019-01-10T06:25:19.913Z,95.40
2019-01-10T06:27:48.938Z,94.80
2019-01-10T06:30:20.044Z,94.70
2019-01-10T06:32:49.091Z,94.80
2019-01-10T06:35:18.054Z,94.60
2019-01-10T06:37:47.035Z,95.10
2019-01-10T06:40:18.603Z,95.20
2019-01-10T06:42:47.583Z,94.70
2019-01-10T06:45:17.885Z,94.80
2019-01-10T06:47:46.927Z,95.30
2019-01-10T06:50:17.145Z,94.80
2019-01-10T06:52:46.768Z,95.10
2019-01-10T06:55:15.730Z,94.50
2019-01-10T06:57:44.762Z,94.90
2019-01-10T07:00:22.117Z,94.70
2019-01-10T07:02:51.477Z,94.50
2019-01-10T07:05:20.583Z,94.40
2019-01-10T07:07:56.445Z,94.20
2019-01-10T07:10:23.050Z,94.00
2019-01-10T07:12:52.118Z,94.40
2019-01-10T07:15:21.086Z,94.50
2019-01-10T07:17:50.142Z,94.70
2019-01-10T07:20:19.349Z,94.50
2019-01-10T07:22:50.563Z,94.50
2019-01-10T07:25:19.527Z,94.50
2019-01-10T07:27:48.672Z,94.60
2019-01-10T07:30:20.871Z,94.20
2019-01-10T07:32:49.927Z,94.20
2019-01-10T07:35:19.052Z,93.90
2019-01-10T07:37:52.802Z,94.20
2019-01-10T07:40:21.834Z,94.30
2019-01-10T07:42:50.946Z,93.70
2019-01-10T07:45:22.342Z,94.30
2019-01-10T07:47:51.454Z,94.70
2019-01-10T07:50:25.143Z,94.50
2019-01-10T07:52:54.110Z,94.70
2019-01-10T07:55:23.070Z,94.30
2019-01-10T07:57:52.046Z,94.70
2019-01-10T08:00:21.079Z,94.20
2019-01-10T08:02:50.061Z,94.70
2019-01-10T08:05:19.169Z,94.50
2019-01-10T08:07:48.141Z,94.70
2019-01-10T08:10:17.340Z,94.60
2019-01-10T08:12:46.454Z,94.30
2019-01-10T08:15:21.154Z,94.40
2019-01-10T08:17:50.268Z,94.70
2019-01-10T08:20:19.362Z,94.80
2019-01-10T08:22:48.334Z,94.50
2019-01-10T08:25:17.359Z,93.90
2019-01-10T08:27:46.398Z,93.60
2019-01-10T08:30:18.448Z,93.90
2019-01-10T08:32:47.557Z,93.10
2019-01-10T08:35:19.264Z,93.00
2019-01-10T08:37:48.238Z,92.20
2019-01-10T08:40:17.265Z,91.60
2019-01-10T08:42:46.248Z,91.50
2019-01-10T08:45:21.394Z,91.90
2019-01-10T08:47:46.200Z,91.60
2019-01-10T08:50:20.953Z,91.90
2019-01-10T08:52:50.107Z,91.00
2019-01-10T08:55:19.361Z,91.30
2019-01-10T08:57:48.415Z,91.20
2019-01-10T09:00:19.709Z,90.50
2019-01-10T09:02:48.830Z,91.60
2019-01-10T09:05:17.863Z,88.80
2019-01-10T09:07:46.849Z,87.90
2019-01-10T09:10:21.455Z,89.50
2019-01-10T09:12:50.448Z,88.60
2019-01-10T09:15:25.441Z,86.70
2019-01-10T09:17:50.157Z,88.50
2019-01-10T09:20:19.175Z,88.60
2019-01-10T09:22:48.200Z,87.00
2019-01-10T09:25:17.857Z,88.10
2019-01-10T09:27:47.007Z,86.20
2019-01-10T09:30:17.999Z,86.40
2019-01-10T09:32:47.120Z,89.50
2019-01-10T09:35:16.229Z,89.50
2019-01-10T09:37:45.351Z,88.20
2019-01-10T09:40:16.670Z,86.00
2019-01-10T09:42:45.713Z,88.10
2019-01-10T09:45:19.886Z,85.80
2019-01-10T09:47:48.952Z,86.50
2019-01-10T09:50:19.760Z,85.60
2019-01-10T09:52:49.055Z,83.40
2019-01-10T09:55:18.299Z,83.70
2019-01-10T09:57:47.330Z,84.00
2019-01-10T10:00:24.978Z,85.90
2019-01-10T10:02:54.025Z,84.00
2019-01-10T10:05:23.052Z,82.40
2019-01-10T10:07:52.039Z,81.50
2019-01-10T10:10:21.603Z,84.10
2019-01-10T10:12:50.616Z,79.70
2019-01-10T10:15:20.227Z,80.40
2019-01-10T10:17:49.249Z,82.80
2019-01-10T10:20:20.568Z,81.00
2019-01-10T10:22:49.534Z,80.00
2019-01-10T10:25:18.667Z,83.30
2019-01-10T10:27:47.739Z,82.50
2019-01-10T10:30:19.029Z,78.70
2019-01-10T10:32:48.085Z,79.60
2019-01-10T10:35:18.370Z,80.70
2019-01-10T10:37:47.704Z,82.80
2019-01-10T10:40:20.594Z,80.30
2019-01-10T10:42:50.130Z,81.40
2019-01-10T10:45:20.336Z,81.70
2019-01-10T10:47:49.368Z,80.60
2019-01-10T10:50:26.190Z,83.20
2019-01-10T10:52:55.214Z,81.50
2019-01-10T10:55:24.334Z,80.30
2019-01-10T10:57:53.356Z,78.00
2019-01-10T11:00:25.041Z,78.00
2019-01-10T11:02:54.096Z,78.30
2019-01-10T11:05:23.313Z,79.20
2019-01-10T11:07:52.282Z,79.30
2019-01-10T11:10:21.992Z,80.50
2019-01-10T11:12:51.011Z,77.90
2019-01-10T11:15:19.996Z,79.40
2019-01-10T11:17:49.214Z,76.80
2019-01-10T11:20:20.321Z,79.90
2019-01-10T11:22:50.016Z,78.70
2019-01-10T11:25:21.435Z,78.50
2019-01-10T11:27:50.546Z,78.10
2019-01-10T11:30:21.072Z,78.90
2019-01-10T11:32:50.015Z,80.20
2019-01-10T11:35:19.133Z,79.80
2019-01-10T11:37:48.112Z,78.30
2019-01-10T11:40:19.406Z,79.00
2019-01-10T11:42:48.742Z,77.70
2019-01-10T11:45:20.131Z,75.60
2019-01-10T11:47:49.342Z,76.80
2019-01-10T11:50:18.537Z,77.60
2019-01-10T11:52:47.638Z,79.40
2019-01-10T11:55:16.747Z,79.30
2019-01-10T11:57:45.844Z,79.10
2019-01-10T12:00:26.553Z,78.30
2019-01-10T12:02:55.758Z,77.10
2019-01-10T12:05:24.806Z,77.80
2019-01-10T12:07:53.913Z,79.50
2019-01-10T12:10:22.965Z,79.70
2019-01-10T12:12:51.995Z,79.10
2019-01-10T12:15:21.055Z,79.10
2019-01-10T12:17:50.215Z,78.80
2019-01-10T12:20:19.741Z,75.80
2019-01-10T12:22:49.567Z,79.20
2019-01-10T12:25:19.399Z,79.30
2019-01-10T12:27:48.599Z,78.30
2019-01-10T12:30:20.204Z,80.00
2019-01-10T12:32:49.308Z,80.20
2019-01-10T12:35:18.368Z,77.70
2019-01-10T12:37:47.335Z,78.60
2019-01-10T12:40:16.686Z,76.10
2019-01-10T12:42:45.989Z,74.40
2019-01-10T12:45:19.682Z,75.50
2019-01-10T12:47:48.779Z,73.80
2019-01-10T12:50:20.583Z,72.40
2019-01-10T12:52:49.619Z,75.90
2019-01-10T12:55:18.620Z,73.10
2019-01-10T12:57:47.736Z,76.60
2019-01-10T13:00:24.391Z,74.50
2019-01-10T13:02:55.400Z,73.50
2019-01-10T13:05:24.431Z,74.10
2019-01-10T13:07:53.467Z,74.40
2019-01-10T13:10:22.519Z,71.60
2019-01-10T13:12:51.566Z,71.90
2019-01-10T13:15:22.864Z,72.40
2019-01-10T13:17:51.896Z,71.50
2019-01-10T13:20:21.100Z,70.10
2019-01-10T13:22:50.214Z,74.10
2019-01-10T13:25:20.336Z,73.30
2019-01-10T13:27:50.042Z,74.90
2019-01-10T13:30:21.553Z,74.80
2019-01-10T13:32:51.330Z,75.00
2019-01-10T13:35:20.394Z,72.00
2019-01-10T13:37:49.351Z,71.80
2019-01-10T13:40:18.547Z,70.30
2019-01-10T13:42:47.852Z,69.50
2019-01-10T13:45:17.838Z,70.20
2019-01-10T13:47:50.188Z,69.30
2019-01-10T13:50:25.548Z,69.70
2019-01-10T13:52:54.645Z,69.90
2019-01-10T13:55:23.709Z,67.60
2019-01-10T13:57:52.670Z,69.70
2019-01-10T14:00:24.274Z,69.00
2019-01-10T14:02:53.305Z,68.20
2019-01-10T14:05:22.446Z,68.20
2019-01-10T14:07:51.472Z,69.80
2019-01-10T14:10:21.094Z,70.60
2019-01-10T14:12:50.155Z,66.50
2019-01-10T14:15:25.091Z,68.70
2019-01-10T14:17:54.375Z,68.90
2019-01-10T14:20:23.477Z,68.40
2019-01-10T14:22:52.455Z,67.70
2019-01-10T14:25:21.560Z,66.80
2019-01-10T14:27:50.662Z,68.10
2019-01-10T14:30:22.642Z,68.40
2019-01-10T14:32:51.675Z,71.00
2019-01-10T14:35:20.979Z,71.90
2019-01-10T14:37:50.093Z,70.30
2019-01-10T14:40:19.582Z,70.80
2019-01-10T14:42:48.887Z,72.20
2019-01-10T14:45:18.789Z,70.10
2019-01-10T14:47:47.830Z,72.00
2019-01-10T14:50:19.359Z,69.60
2019-01-10T14:52:49.302Z,71.00
2019-01-10T14:55:18.333Z,70.80
2019-01-10T14:57:47.455Z,69.80
2019-01-10T15:00:21.613Z,72.10
2019-01-10T15:02:50.778Z,70.30
2019-01-10T15:05:20.596Z,70.40
2019-01-10T15:07:49.826Z,70.70
2019-01-10T15:10:19.430Z,70.80
2019-01-10T15:12:48.671Z,71.00
2019-01-10T15:15:19.566Z,71.00
2019-01-10T15:17:48.696Z,69.90
2019-01-10T15:20:23.667Z,69.60
2019-01-10T15:22:53.018Z,70.40
2019-01-10T15:25:22.041Z,69.40
2019-01-10T15:27:51.025Z,69.00
2019-01-10T15:30:25.315Z,71.00
2019-01-10T15:32:54.462Z,68.80
2019-01-10T15:35:23.874Z,68.30
2019-01-10T15:37:52.907Z,67.60
2019-01-10T15:40:27.004Z,68.40
2019-01-10T15:42:55.977Z,68.70
2019-01-10T15:45:25.182Z,68.70
2019-01-10T15:47:54.305Z,69.00
2019-01-10T15:50:23.342Z,68.50
2019-01-10T15:52:52.411Z,70.00
2019-01-10T15:55:21.907Z,71.70
2019-01-10T15:57:50.968Z,71.90
2019-01-10T16:00:22.231Z,72.00
2019-01-10T16:02:51.974Z,71.20
2019-01-10T16:05:21.082Z,71.60
2019-01-10T16:07:50.270Z,70.10
2019-01-10T16:10:20.463Z,72.20
2019-01-10T16:12:49.835Z,68.10
2019-01-10T16:15:20.890Z,71.50
2019-01-10T16:17:50.249Z,71.20
2019-01-10T16:20:19.288Z,70.30
2019-01-10T16:22:48.644Z,68.50
2019-01-10T16:25:19.691Z,70.10
2019-01-10T16:27:49.040Z,71.00
2019-01-10T16:30:23.797Z,70.60
2019-01-10T16:32:52.842Z,71.80
2019-01-10T16:35:21.874Z,70.30
2019-01-10T16:37:50.921Z,71.70
2019-01-10T16:40:20.330Z,71.60
2019-01-10T16:42:49.302Z,72.40
2019-01-10T16:45:23.371Z,73.20
2019-01-10T16:47:52.434Z,72.70
2019-01-10T16:50:21.453Z,73.00
2019-01-10T16:52:50.510Z,73.50
2019-01-10T16:55:19.484Z,73.10
2019-01-10T16:57:48.540Z,72.90
2019-01-10T17:00:23.183Z,72.20
2019-01-10T17:02:52.159Z,73.10
2019-01-10T17:05:21.202Z,74.90
2019-01-10T17:07:50.341Z,75.20
2019-01-10T17:10:19.367Z,74.50
2019-01-10T17:12:48.500Z,75.50
2019-01-10T17:15:17.717Z,74.70
2019-01-10T17:17:46.675Z,75.60
2019-01-10T17:20:18.475Z,75.40
2019-01-10T17:22:47.633Z,75.00
2019-01-10T17:25:16.834Z,73.70
2019-01-10T17:27:45.942Z,72.70
2019-01-10T17:30:18.033Z,73.60
2019-01-10T17:32:46.982Z,73.20
2019-01-10T17:35:18.994Z,73.20
2019-01-10T17:37:47.957Z,72.70
2019-01-10T17:40:19.787Z,71.50
2019-01-10T17:42:48.890Z,72.50
2019-01-10T17:45:20.291Z,72.70
2019-01-10T17:47:49.318Z,73.70
2019-01-10T17:50:19.440Z,73.60
2019-01-10T17:52:48.442Z,74.50
2019-01-10T17:55:17.417Z,74.70
2019-01-10T17:57:46.463Z,74.90
2019-01-10T18:00:24.062Z,75.60
2019-01-10T18:02:53.035Z,75.00
2019-01-10T18:05:22.086Z,75.50
2019-01-10T18:07:51.191Z,76.10
2019-01-10T18:10:22.020Z,75.40
2019-01-10T18:12:51.515Z,76.00
2019-01-10T18:15:24.586Z,75.30
2019-01-10T18:17:53.712Z,75.80
2019-01-10T18:20:25.616Z,76.40
2019-01-10T18:22:54.716Z,77.50
2019-01-10T18:25:23.775Z,77.00
2019-01-10T18:27:52.864Z,76.60
2019-01-10T18:30:23.787Z,77.00
2019-01-10T18:32:52.831Z,77.70
2019-01-10T18:35:26.503Z,78.40
2019-01-10T18:37:53.503Z,78.00
2019-01-10T18:40:22.619Z,78.50
2019-01-10T18:42:51.648Z,78.10
2019-01-10T18:45:26.587Z,77.80
2019-01-10T18:47:57.343Z,78.30
2019-01-10T18:50:26.383Z,78.30
2019-01-10T18:52:55.325Z,78.90
2019-01-10T18:55:24.325Z,78.80
2019-01-10T18:57:53.368Z,79.20
2019-01-10T19:00:29.974Z,79.70
2019-01-10T19:02:59.492Z,80.00
2019-01-10T19:05:28.564Z,80.30
2019-01-10T19:07:57.517Z,80.60
2019-01-10T19:10:26.674Z,80.50
2019-01-10T19:12:55.712Z,80.40
2019-01-10T19:15:24.775Z,81.30
2019-01-10T19:17:53.823Z,79.40
2019-01-10T19:20:24.736Z,80.30
2019-01-10T19:22:54.251Z,80.90
2019-01-10T19:25:23.228Z,81.10
2019-01-10T19:27:52.217Z,82.70
2019-01-10T19:30:29.307Z,83.10
2019-01-10T19:32:58.423Z,83.70
2019-01-10T19:35:27.419Z,83.40
2019-01-10T19:37:56.507Z,84.00
2019-01-10T19:40:25.650Z,83.20
2019-01-10T19:42:54.637Z,83.20
2019-01-10T19:45:23.757Z,82.70
2019-01-10T19:47:52.737Z,79.80
2019-01-10T19:50:24.226Z,82.00
2019-01-10T19:52:53.285Z,80.80
2019-01-10T19:55:23.401Z,80.70
2019-01-10T19:57:53.094Z,80.90
2019-01-10T20:00:30.775Z,80.70
2019-01-10T20:02:59.812Z,81.60
2019-01-10T20:05:28.898Z,83.00
2019-01-10T20:07:57.923Z,83.60
2019-01-10T20:10:27.122Z,83.50
2019-01-10T20:12:56.184Z,83.80
2019-01-10T20:15:25.164Z,83.40
2019-01-10T20:17:54.224Z,83.90
2019-01-10T20:20:31.695Z,84.20
2019-01-10T20:23:00.915Z,85.50
2019-01-10T20:25:30.057Z,85.20
2019-01-10T20:27:59.096Z,85.00
2019-01-10T20:30:28.059Z,83.70
2019-01-10T20:32:57.059Z,83.30
2019-01-10T20:35:26.231Z,84.60
2019-01-10T20:37:55.366Z,84.20
2019-01-10T20:40:24.420Z,85.00
2019-01-10T20:42:53.482Z,85.70
2019-01-10T20:45:22.633Z,84.10
2019-01-10T20:47:51.604Z,84.80
2019-01-10T20:50:20.574Z,85.20
2019-01-10T20:52:49.711Z,84.80
2019-01-10T20:55:19.408Z,85.50
2019-01-10T20:57:48.423Z,85.20
2019-01-10T21:00:24.938Z,85.40
2019-01-10T21:02:54.012Z,85.60
2019-01-10T21:05:23.063Z,85.90
2019-01-10T21:07:53.275Z,85.50
2019-01-10T21:10:23.479Z,86.60
2019-01-10T21:12:52.590Z,86.70
2019-01-10T21:15:26.236Z,87.00
2019-01-10T21:17:55.682Z,87.30
2019-01-10T21:20:24.722Z,85.80
2019-01-10T21:22:53.864Z,85.70
2019-01-10T21:25:22.839Z,85.90
2019-01-10T21:27:51.827Z,85.20
2019-01-10T21:30:23.011Z,84.10
2019-01-10T21:32:52.075Z,85.60
2019-01-10T21:35:21.272Z,85.60
2019-01-10T21:37:50.386Z,84.80
2019-01-10T21:40:23.751Z,85.40
2019-01-10T21:42:53.456Z,86.00
2019-01-10T21:45:23.562Z,86.60
2019-01-10T21:47:53.049Z,86.50
2019-01-10T21:50:24.775Z,85.70
2019-01-10T21:52:53.891Z,85.40
2019-01-10T21:55:22.872Z,85.20
2019-01-10T21:57:52.015Z,86.20
2019-01-10T22:00:31.741Z,85.60
2019-01-10T22:03:02.841Z,86.20
2019-01-10T22:05:31.876Z,85.90
2019-01-10T22:08:02.403Z,83.40
2019-01-10T22:10:31.956Z,84.10
2019-01-10T22:13:01.008Z,85.10
2019-01-10T22:15:30.035Z,86.00
2019-01-10T22:17:59.003Z,85.20
2019-01-10T22:20:28.040Z,85.30
2019-01-10T22:22:57.013Z,85.60
2019-01-10T22:25:26.057Z,84.90
2019-01-10T22:27:55.265Z,84.80
2019-01-10T22:30:24.370Z,84.20
2019-01-10T22:32:53.496Z,84.40
2019-01-10T22:35:22.979Z,85.10
2019-01-10T22:37:52.031Z,85.00
2019-01-10T22:40:22.516Z,84.70
2019-01-10T22:42:51.643Z,84.50
2019-01-10T22:45:20.754Z,85.70
2019-01-10T22:47:49.739Z,85.50
2019-01-10T22:50:20.518Z,83.90
2019-01-10T22:52:49.558Z,85.00
2019-01-10T22:55:18.993Z,85.00
2019-01-10T22:57:48.119Z,85.00
2019-01-10T23:00:33.698Z,85.20
2019-01-10T23:03:06.470Z,85.80
2019-01-10T23:05:40.151Z,86.90
2019-01-10T23:08:09.215Z,86.10
2019-01-10T23:10:38.175Z,86.70
2019-01-10T23:13:07.295Z,85.40
2019-01-10T23:15:36.334Z,86.50
2019-01-10T23:18:06.930Z,86.40
2019-01-10T23:20:36.047Z,85.70
2019-01-10T23:23:07.961Z,86.00
2019-01-10T23:25:37.175Z,86.40
2019-01-10T23:28:06.698Z,86.70
2019-01-10T23:30:47.358Z,85.30
2019-01-10T23:33:18.422Z,85.60
2019-01-10T23:35:50.965Z,85.40
2019-01-10T23:38:22.221Z,84.90
2019-01-10T23:40:51.317Z,84.50
2019-01-10T23:43:20.472Z,84.10
2019-01-10T23:45:49.434Z,85.50
2019-01-10T23:48:18.430Z,83.20
2019-01-10T23:50:47.405Z,84.30
2019-01-10T23:53:16.374Z,85.10
2019-01-10T23:55:45.435Z,85.00
2019-01-10T23:58:14.386Z,83.90
